Time;durP1;ratioP1;P1;durP2;ratioP2;P2;SDS_P1;SDS_P2;PMS_P1;PMS_P2;Temp;Humidity;BMP_temperature;BMP_pressure;BME280_temperature;BME280_humidity;BME280_pressure;Samples;Min_cycle;Max_cycle;Signal;HPM_P1;HPM_P2
2022/09/23 00:00:32;;;;;;;3.37;2.20;;;12.30;99.90;;;;;;5052462;28;20416;-49
2022/09/23 00:03:01;;;;;;;3.13;2.10;;;12.30;99.90;;;;;;5049249;28;20426;-50
2022/09/23 00:05:27;;;;;;;2.63;2.30;;;12.30;99.90;;;;;;5051377;28;20581;-51
2022/09/23 00:07:56;;;;;;;2.07;1.97;;;12.30;99.90;;;;;;5052794;28;20439;-51
2022/09/23 00:10:23;;;;;;;2.23;2.03;;;12.30;99.90;;;;;;5052407;28;20466;-47
2022/09/23 00:12:49;;;;;;;2.60;2.00;;;12.30;99.90;;;;;;5051694;28;20561;-49
2022/09/23 00:15:16;;;;;;;4.40;2.00;;;12.40;99.90;;;;;;5052298;28;20515;-53
2022/09/23 00:17:41;;;;;;;2.53;1.90;;;12.40;99.90;;;;;;5052432;28;20182;-48
2022/09/23 00:20:08;;;;;;;3.23;1.93;;;12.40;99.90;;;;;;5053652;28;20435;-49
2022/09/23 00:22:35;;;;;;;3.93;2.70;;;12.40;99.90;;;;;;5051804;28;20603;-46
2022/09/23 00:25:06;;;;;;;2.13;1.90;;;12.30;99.90;;;;;;5050685;28;20436;-50
2022/09/23 00:27:32;;;;;;;2.60;2.13;;;12.30;99.90;;;;;;5051060;28;20428;-48
2022/09/23 00:29:59;;;;;;;2.07;1.77;;;12.30;99.90;;;;;;5052113;28;20543;-53
2022/09/23 00:32:25;;;;;;;2.30;2.10;;;12.30;99.90;;;;;;5050639;28;20506;-48
2022/09/23 00:34:51;;;;;;;2.17;1.80;;;12.30;99.90;;;;;;5044321;28;20427;-52
2022/09/23 00:37:18;;;;;;;2.57;2.23;;;12.20;99.90;;;;;;5049595;28;20436;-49
2022/09/23 00:39:45;;;;;;;2.47;1.83;;;12.20;99.90;;;;;;5052051;28;20421;-52
2022/09/23 00:42:19;;;;;;;3.20;2.57;;;12.20;99.90;;;;;;5051924;28;20433;-51
2022/09/23 00:44:58;;;;;;;4.20;2.73;;;12.20;99.90;;;;;;5051644;28;20427;-49
2022/09/23 00:47:42;;;;;;;2.33;2.07;;;12.20;99.90;;;;;;5051798;28;20424;-52
2022/09/23 00:50:11;;;;;;;2.50;1.90;;;12.30;99.90;;;;;;5051743;28;20448;-50
2022/09/23 00:52:38;;;;;;;3.00;2.10;;;12.30;99.90;;;;;;5051156;28;21047;-50
2022/09/23 00:55:09;;;;;;;2.57;1.90;;;12.30;99.90;;;;;;5049709;28;20498;-48
2022/09/23 00:57:37;;;;;;;2.30;2.10;;;12.40;99.90;;;;;;5051456;28;20508;-51
2022/09/23 01:00:05;;;;;;;3.27;1.80;;;12.40;99.90;;;;;;5051702;28;20919;-49
2022/09/23 01:02:31;;;;;;;3.17;2.20;;;12.40;99.90;;;;;;5051270;28;20511;-50
2022/09/23 01:04:57;;;;;;;2.67;2.33;;;12.50;99.90;;;;;;5050625;28;20566;-52
2022/09/23 01:07:23;;;;;;;2.70;2.03;;;12.50;99.90;;;;;;5051463;28;20428;-48
2022/09/23 01:09:49;;;;;;;2.63;2.00;;;12.50;99.90;;;;;;5051407;28;20522;-45
2022/09/23 01:12:39;;;;;;;5.93;2.50;;;12.50;99.90;;;;;;5051343;28;20193;-50
2022/09/23 01:15:18;;;;;;;2.40;1.80;;;12.60;99.90;;;;;;5051302;28;20878;-49
2022/09/23 01:18:17;;;;;;;2.07;1.80;;;12.60;99.90;;;;;;5051277;28;20423;-51
2022/09/23 01:20:58;;;;;;;1.87;1.70;;;12.60;99.90;;;;;;5052234;28;20435;-48
2022/09/23 01:23:45;;;;;;;2.40;1.70;;;12.70;99.90;;;;;;5047889;28;20428;-51
2022/09/23 01:26:35;;;;;;;1.87;1.73;;;12.60;99.90;;;;;;5051375;28;20802;-53
2022/09/23 01:29:41;;;;;;;2.73;2.00;;;12.50;99.90;;;;;;5051014;28;20421;-51
2022/09/23 01:32:26;;;;;;;3.60;1.60;;;12.50;99.90;;;;;;5042795;28;20436;-47
2022/09/23 01:35:13;;;;;;;1.90;1.50;;;12.50;99.90;;;;;;5050558;28;20950;-51
2022/09/23 01:38:11;;;;;;;2.10;1.90;;;12.50;99.90;;;;;;5051004;28;20507;-53
2022/09/23 01:41:11;;;;;;;2.83;1.83;;;12.50;99.90;;;;;;5059332;28;20420;-49
2022/09/23 01:43:41;;;;;;;1.77;1.63;;;12.50;99.90;;;;;;5054868;28;20420;-51
2022/09/23 01:46:16;;;;;;;1.70;1.60;;;12.50;99.90;;;;;;5050932;28;20432;-52
2022/09/23 01:48:53;;;;;;;1.57;1.47;;;12.50;99.90;;;;;;5050202;28;20444;-48
2022/09/23 01:51:31;;;;;;;1.70;1.60;;;12.50;99.90;;;;;;5050747;28;20543;-54
2022/09/23 01:54:18;;;;;;;2.00;1.90;;;12.50;99.90;;;;;;5048876;28;20807;-50
2022/09/23 01:56:53;;;;;;;1.63;1.53;;;12.50;99.90;;;;;;5050505;28;20420;-49
2022/09/23 01:59:25;;;;;;;3.23;1.80;;;12.60;99.90;;;;;;5044412;28;20482;-50
2022/09/23 02:01:51;;;;;;;2.63;2.33;;;12.60;99.90;;;;;;5050511;28;20471;-49
2022/09/23 02:04:29;;;;;;;2.10;1.53;;;12.60;99.90;;;;;;5049585;28;20506;-50
2022/09/23 02:07:09;;;;;;;2.80;1.63;;;12.60;99.90;;;;;;5050393;28;20231;-52
2022/09/23 02:09:41;;;;;;;2.33;1.60;;;12.60;99.90;;;;;;5049846;28;20489;-51
2022/09/23 02:12:12;;;;;;;2.23;1.83;;;12.60;99.90;;;;;;5050664;28;20498;-50
2022/09/23 02:14:49;;;;;;;1.87;1.73;;;12.60;99.90;;;;;;5049487;28;20528;-50
2022/09/23 02:17:25;;;;;;;2.17;1.70;;;12.60;99.90;;;;;;5045833;28;20499;-49
2022/09/23 02:20:00;;;;;;;3.27;1.40;;;12.70;99.90;;;;;;5049874;28;20424;-52
2022/09/23 02:22:41;;;;;;;1.70;1.60;;;12.70;99.90;;;;;;5050103;28;20426;-51
2022/09/23 02:25:08;;;;;;;1.93;1.73;;;12.70;99.90;;;;;;5050155;28;20438;-49
2022/09/23 02:27:56;;;;;;;3.03;2.40;;;12.60;99.90;;;;;;5049955;28;20474;-47
2022/09/23 02:30:28;;;;;;;3.50;1.70;;;12.60;99.90;;;;;;5049564;28;20448;-49
2022/09/23 02:32:59;;;;;;;1.67;1.57;;;12.70;99.90;;;;;;5049368;28;20417;-48
2022/09/23 02:35:32;;;;;;;2.23;1.80;;;12.70;99.90;;;;;;5049955;28;20448;-50
2022/09/23 02:38:07;;;;;;;2.20;2.00;;;12.60;99.90;;;;;;5050084;28;20411;-46
2022/09/23 02:40:49;;;;;;;2.47;2.07;;;12.60;99.90;;;;;;5048394;28;20451;-48
2022/09/23 02:43:35;;;;;;;1.87;1.60;;;12.50;99.90;;;;;;5049255;28;20454;-51
2022/09/23 02:46:05;;;;;;;2.00;1.80;;;12.50;99.90;;;;;;5049760;28;20448;-50
2022/09/23 02:48:40;;;;;;;1.80;1.70;;;12.50;99.90;;;;;;5049886;28;20420;-48
2022/09/23 02:51:06;;;;;;;2.50;1.60;;;12.50;99.90;;;;;;5038203;28;20890;-46
2022/09/23 02:53:33;;;;;;;1.93;1.50;;;12.60;99.90;;;;;;5048149;28;20423;-47
2022/09/23 02:56:00;;;;;;;2.70;1.87;;;12.60;99.90;;;;;;5049564;28;20410;-50
2022/09/23 02:58:26;;;;;;;1.63;1.53;;;12.50;99.90;;;;;;5049748;28;20412;-48
2022/09/23 03:01:04;;;;;;;2.50;1.80;;;12.60;99.90;;;;;;5048449;28;20432;-47
2022/09/23 03:03:39;;;;;;;2.77;2.00;;;12.60;99.90;;;;;;5049130;28;20977;-49
2022/09/23 03:06:37;;;;;;;1.67;1.57;;;12.60;99.90;;;;;;5049597;28;20431;-51
2022/09/23 03:09:17;;;;;;;5.10;1.83;;;12.60;99.90;;;;;;5038959;28;21183;-48
2022/09/23 03:11:49;;;;;;;2.37;1.50;;;12.60;99.90;;;;;;5049413;28;20811;-51
2022/09/23 03:14:40;;;;;;;3.40;1.83;;;12.60;99.90;;;;;;5048742;28;20417;-51
2022/09/23 03:17:20;;;;;;;1.97;1.80;;;12.50;99.90;;;;;;5049639;28;20950;-50
2022/09/23 03:20:01;;;;;;;2.10;1.90;;;12.40;99.90;;;;;;5050627;28;20424;-47
2022/09/23 03:22:34;;;;;;;1.90;1.70;;;12.40;99.90;;;;;;5049038;28;20408;-48
2022/09/23 03:25:05;;;;;;;2.97;1.90;;;12.30;99.90;;;;;;5046612;28;20947;-51
2022/09/23 03:27:33;;;;;;;2.43;2.10;;;12.10;99.90;;;;;;5048372;28;20424;-46
2022/09/23 03:30:00;;;;;;;2.33;1.67;;;12.10;99.90;;;;;;5044502;28;20944;-47
2022/09/23 03:32:27;;;;;;;2.40;1.90;;;12.10;99.90;;;;;;5048698;28;20447;-47
2022/09/23 03:34:56;;;;;;;2.10;1.90;;;12.10;99.90;;;;;;5048853;28;20432;-52
2022/09/23 03:37:40;;;;;;;2.10;1.90;;;12.00;99.90;;;;;;5049710;28;20426;-48
2022/09/23 03:40:15;;;;;;;1.83;1.73;;;12.00;99.90;;;;;;5047996;28;20447;-46
2022/09/23 03:42:41;;;;;;;2.60;1.90;;;12.00;99.90;;;;;;5035896;28;20911;-48
2022/09/23 03:45:12;;;;;;;3.17;1.90;;;12.00;99.90;;;;;;5049094;28;20802;-52
2022/09/23 03:47:38;;;;;;;3.10;2.17;;;12.00;99.90;;;;;;5048982;28;20416;-47
2022/09/23 03:50:04;;;;;;;2.30;2.10;;;12.00;99.90;;;;;;5049234;28;20556;-50
2022/09/23 03:52:30;;;;;;;4.53;1.97;;;11.90;99.90;;;;;;5049003;28;20474;-49
2022/09/23 03:54:56;;;;;;;3.00;1.90;;;11.90;99.90;;;;;;5047905;28;20512;-49
2022/09/23 03:57:22;;;;;;;1.70;1.60;;;11.80;99.90;;;;;;5052391;28;20686;-47
2022/09/23 03:59:49;;;;;;;4.70;2.30;;;11.70;99.90;;;;;;5052598;28;20190;-47
2022/09/23 04:02:15;;;;;;;2.87;2.10;;;11.60;99.90;;;;;;5052686;28;20682;-52
2022/09/23 04:04:41;;;;;;;2.53;2.20;;;11.60;99.90;;;;;;5051850;28;20471;-47
2022/09/23 04:07:08;;;;;;;2.30;2.10;;;11.40;99.90;;;;;;5052807;28;20883;-47
2022/09/23 04:09:34;;;;;;;2.10;1.90;;;11.30;99.90;;;;;;5052240;28;20446;-48
2022/09/23 04:11:59;;;;;;;3.60;1.90;;;11.30;99.90;;;;;;5052618;28;20810;-48
2022/09/23 04:14:26;;;;;;;3.07;2.43;;;11.30;99.90;;;;;;5050931;28;20412;-46
2022/09/23 04:16:51;;;;;;;2.67;2.17;;;11.20;99.90;;;;;;5051384;28;20211;-47
2022/09/23 04:19:17;;;;;;;2.20;2.00;;;11.20;99.90;;;;;;5052116;28;20428;-48
2022/09/23 04:21:44;;;;;;;3.40;2.10;;;11.10;99.90;;;;;;5054379;28;20197;-49
2022/09/23 04:24:10;;;;;;;2.90;1.67;;;11.00;99.90;;;;;;5051603;28;20451;-50
2022/09/23 04:26:37;;;;;;;3.83;2.00;;;11.10;99.90;;;;;;5052391;28;20424;-50
2022/09/23 04:29:06;;;;;;;3.73;2.10;;;11.00;99.90;;;;;;5055277;28;20881;-51
2022/09/23 04:31:33;;;;;;;2.10;1.90;;;11.00;99.90;;;;;;5051626;28;20487;-51
2022/09/23 04:33:59;;;;;;;2.03;1.93;;;11.00;99.90;;;;;;5041572;28;21037;-48
2022/09/23 04:36:25;;;;;;;2.17;2.07;;;11.00;99.90;;;;;;5051862;28;20514;-48
2022/09/23 04:38:51;;;;;;;2.00;1.83;;;11.10;99.90;;;;;;5051395;28;20435;-49
2022/09/23 04:41:17;;;;;;;2.30;2.03;;;11.10;99.90;;;;;;5052048;28;20481;-49
2022/09/23 04:43:43;;;;;;;5.17;2.60;;;11.10;99.90;;;;;;5051043;28;20807;-46
2022/09/23 04:46:11;;;;;;;3.30;2.10;;;11.00;99.90;;;;;;5051930;28;20428;-47
2022/09/23 04:48:38;;;;;;;4.40;2.07;;;11.00;99.90;;;;;;5051897;28;20988;-53
2022/09/23 04:51:08;;;;;;;2.43;2.23;;;10.90;99.90;;;;;;5051848;28;20482;-50
2022/09/23 04:53:38;;;;;;;1.90;1.80;;;10.90;99.90;;;;;;5050283;28;20417;-47
2022/09/23 04:56:10;;;;;;;2.50;2.30;;;10.70;99.90;;;;;;5051690;28;20421;-47
2022/09/23 04:58:37;;;;;;;2.50;2.27;;;10.60;99.90;;;;;;5051766;28;20577;-48
2022/09/23 05:01:10;;;;;;;3.50;2.60;;;10.60;99.90;;;;;;5051787;28;20424;-48
2022/09/23 05:03:35;;;;;;;5.30;3.07;;;10.80;99.90;;;;;;5049066;28;20428;-51
2022/09/23 05:06:01;;;;;;;3.27;2.80;;;11.00;99.90;;;;;;5049920;28;20477;-52
2022/09/23 05:08:27;;;;;;;3.57;2.40;;;11.10;99.90;;;;;;5050470;28;20460;-51
2022/09/23 05:10:57;;;;;;;4.80;3.00;;;11.30;99.90;;;;;;5049740;28;20292;-49
2022/09/23 05:13:23;;;;;;;2.90;2.50;;;11.40;99.90;;;;;;5050840;28;20424;-50
2022/09/23 05:15:55;;;;;;;8.53;4.30;;;11.40;99.90;;;;;;5051228;28;20423;-48
2022/09/23 05:18:20;;;;;;;3.60;3.30;;;11.50;99.90;;;;;;5051337;28;20244;-49
2022/09/23 05:20:53;;;;;;;4.00;3.17;;;11.50;99.90;;;;;;5052320;28;20432;-50
2022/09/23 05:23:18;;;;;;;3.63;2.63;;;11.40;99.90;;;;;;5050316;28;20655;-49
2022/09/23 05:25:44;;;;;;;3.50;2.73;;;11.40;99.90;;;;;;5051166;28;20448;-49
2022/09/23 05:28:10;;;;;;;3.60;2.80;;;11.20;99.90;;;;;;5046933;28;20231;-50
2022/09/23 05:30:36;;;;;;;4.70;2.87;;;11.20;99.90;;;;;;5049959;28;21009;-52
2022/09/23 05:33:01;;;;;;;4.23;2.60;;;11.20;99.90;;;;;;5056829;28;20190;-48
2022/09/23 05:35:27;;;;;;;2.40;2.20;;;11.20;99.90;;;;;;5048750;28;20537;-49
2022/09/23 05:37:52;;;;;;;4.53;2.83;;;11.20;99.90;;;;;;5049963;28;20212;-47
2022/09/23 05:40:18;;;;;;;2.90;2.50;;;11.20;99.90;;;;;;5064618;28;20547;-50
2022/09/23 05:42:44;;;;;;;2.50;2.30;;;11.20;99.90;;;;;;5055899;28;20194;-46
2022/09/23 05:45:10;;;;;;;5.90;2.57;;;11.20;99.90;;;;;;5051942;28;20189;-50
2022/09/23 05:47:36;;;;;;;3.30;2.60;;;11.20;99.90;;;;;;5050665;28;20963;-46
2022/09/23 05:50:01;;;;;;;2.43;2.23;;;11.20;99.90;;;;;;5050551;28;20452;-46
2022/09/23 05:52:27;;;;;;;3.70;2.43;;;11.20;99.90;;;;;;5057191;28;20199;-46
2022/09/23 05:54:53;;;;;;;4.03;2.83;;;11.20;99.90;;;;;;5061721;28;20190;-49
2022/09/23 05:57:19;;;;;;;3.70;2.57;;;11.30;99.90;;;;;;5045081;28;20732;-49
2022/09/23 05:59:46;;;;;;;4.93;2.20;;;11.40;99.90;;;;;;5050640;28;20201;-48
2022/09/23 06:02:13;;;;;;;2.80;2.50;;;11.50;99.90;;;;;;5050478;28;20431;-51
2022/09/23 06:04:39;;;;;;;2.47;2.27;;;11.60;99.90;;;;;;5048023;28;20534;-48
2022/09/23 06:07:04;;;;;;;2.83;2.50;;;11.70;99.90;;;;;;5057383;28;20423;-50
2022/09/23 06:09:30;;;;;;;3.87;2.30;;;11.80;99.90;;;;;;5070271;28;20204;-46
2022/09/23 06:11:55;;;;;;;3.10;2.50;;;11.90;99.90;;;;;;5056002;28;20218;-48
2022/09/23 06:14:21;;;;;;;3.47;2.50;;;12.10;99.90;;;;;;5043463;28;20193;-49
2022/09/23 06:16:47;;;;;;;3.43;2.33;;;12.20;99.90;;;;;;5050342;28;20227;-49
2022/09/23 06:19:12;;;;;;;3.23;2.90;;;12.20;99.90;;;;;;5050495;28;20244;-48
2022/09/23 06:21:39;;;;;;;3.43;2.43;;;12.30;99.90;;;;;;5049915;28;20189;-51
2022/09/23 06:24:06;;;;;;;3.13;2.33;;;12.40;99.90;;;;;;5048916;28;20206;-47
2022/09/23 06:26:35;;;;;;;5.93;2.90;;;12.40;99.90;;;;;;5050203;28;20557;-51
2022/09/23 06:29:03;;;;;;;2.73;2.53;;;12.40;99.90;;;;;;5049999;28;20915;-47
2022/09/23 06:31:28;;;;;;;3.67;2.77;;;12.50;99.90;;;;;;5044176;28;20556;-48
2022/09/23 06:33:54;;;;;;;4.23;2.70;;;12.40;99.90;;;;;;5047044;28;20527;-50
2022/09/23 06:36:19;;;;;;;3.03;2.17;;;12.40;99.90;;;;;;5042805;28;20605;-48
2022/09/23 06:38:48;;;;;;;5.30;2.40;;;12.50;99.90;;;;;;5045585;28;20190;-49
2022/09/23 06:41:14;;;;;;;3.70;2.90;;;12.50;99.90;;;;;;5048625;28;20236;-47
2022/09/23 06:43:40;;;;;;;2.80;2.60;;;12.50;99.90;;;;;;5047021;28;20448;-50
2022/09/23 06:46:07;;;;;;;3.70;2.50;;;12.50;99.90;;;;;;5049524;28;20444;-48
2022/09/23 06:48:34;;;;;;;4.03;2.80;;;12.60;99.90;;;;;;5049457;28;20790;-51
2022/09/23 06:51:04;;;;;;;2.50;2.30;;;12.70;99.90;;;;;;5037484;28;20562;-49
2022/09/23 06:53:33;;;;;;;4.50;2.70;;;12.70;99.90;;;;;;5048107;28;20463;-47
2022/09/23 06:56:07;;;;;;;2.57;2.33;;;12.80;99.90;;;;;;5048556;28;20834;-51
2022/09/23 06:58:34;;;;;;;3.17;2.80;;;12.90;99.90;;;;;;5049847;28;20467;-48
2022/09/23 07:01:12;;;;;;;3.10;2.80;;;13.00;99.90;;;;;;5049550;28;20423;-46
2022/09/23 07:03:38;;;;;;;3.93;2.20;;;13.10;99.90;;;;;;5048951;28;21287;-47
2022/09/23 07:06:05;;;;;;;6.60;2.80;;;13.30;99.90;;;;;;5049560;28;20420;-50
2022/09/23 07:08:35;;;;;;;3.53;3.13;;;13.40;99.90;;;;;;5049580;28;20446;-46
2022/09/23 07:11:04;;;;;;;3.73;2.70;;;13.50;99.90;;;;;;5049445;28;20447;-52
2022/09/23 07:13:32;;;;;;;4.93;2.47;;;13.70;99.90;;;;;;5031151;28;20419;-48
2022/09/23 07:16:00;;;;;;;3.10;2.57;;;13.80;99.90;;;;;;5049218;28;20420;-50
2022/09/23 07:18:28;;;;;;;2.90;2.30;;;14.00;99.90;;;;;;5049622;28;20425;-47
2022/09/23 07:20:57;;;;;;;2.40;2.20;;;14.10;99.90;;;;;;5050443;28;20436;-50
2022/09/23 07:23:24;;;;;;;4.30;2.47;;;14.20;99.90;;;;;;5047695;28;20423;-49
2022/09/23 07:25:50;;;;;;;2.13;1.93;;;14.40;99.90;;;;;;5049344;28;20509;-47
2022/09/23 07:28:19;;;;;;;2.57;2.37;;;14.60;99.90;;;;;;5049325;28;20988;-51
2022/09/23 07:30:45;;;;;;;3.43;2.20;;;14.70;99.90;;;;;;5049945;28;20981;-51
2022/09/23 07:33:11;;;;;;;2.90;2.13;;;14.70;99.90;;;;;;5052779;28;20424;-49
2022/09/23 07:35:39;;;;;;;3.20;2.87;;;14.80;99.90;;;;;;5053183;28;20473;-47
2022/09/23 07:38:06;;;;;;;3.37;2.53;;;14.90;99.90;;;;;;5053259;28;20439;-51
2022/09/23 07:40:32;;;;;;;4.10;2.27;;;14.90;99.90;;;;;;5053067;28;20439;-50
2022/09/23 07:42:58;;;;;;;2.77;2.40;;;14.90;99.90;;;;;;5052254;28;20428;-50
2022/09/23 07:45:26;;;;;;;4.03;2.30;;;15.00;99.90;;;;;;5052919;28;20431;-47
2022/09/23 07:47:52;;;;;;;2.20;2.07;;;15.10;99.90;;;;;;5053097;28;20454;-48
2022/09/23 07:50:18;;;;;;;2.33;2.13;;;15.10;99.90;;;;;;5052844;28;20982;-46
2022/09/23 07:52:43;;;;;;;2.47;2.20;;;15.30;99.90;;;;;;5052347;28;20425;-50
2022/09/23 07:55:09;;;;;;;2.90;2.20;;;15.40;99.90;;;;;;5051952;28;20186;-50
2022/09/23 07:57:35;;;;;;;4.93;2.70;;;15.50;99.90;;;;;;5051237;28;20247;-52
2022/09/23 08:00:01;;;;;;;4.10;2.53;;;15.50;99.90;;;;;;5052821;28;20182;-49
2022/09/23 08:02:27;;;;;;;2.73;2.53;;;15.50;99.90;;;;;;5052543;28;20193;-48
2022/09/23 08:04:53;;;;;;;4.20;2.17;;;15.50;99.90;;;;;;5052119;28;20465;-47
2022/09/23 08:07:19;;;;;;;2.80;2.50;;;15.50;99.90;;;;;;5051901;28;20205;-51
2022/09/23 08:09:45;;;;;;;2.80;2.60;;;15.50;99.90;;;;;;5051355;28;20506;-46
2022/09/23 08:12:14;;;;;;;2.30;2.07;;;15.50;99.90;;;;;;5051550;28;20197;-46
2022/09/23 08:14:40;;;;;;;4.47;2.47;;;15.50;99.90;;;;;;5051724;28;20785;-50
2022/09/23 08:17:06;;;;;;;2.50;2.30;;;15.60;99.90;;;;;;5052540;28;20757;-52
2022/09/23 08:19:32;;;;;;;2.37;2.17;;;15.60;99.90;;;;;;5053590;28;20559;-50
2022/09/23 08:21:58;;;;;;;2.40;2.20;;;15.60;99.90;;;;;;5052417;28;20420;-48
2022/09/23 08:24:25;;;;;;;3.00;2.40;;;15.60;99.90;;;;;;5051688;28;20431;-53
2022/09/23 08:26:52;;;;;;;2.17;1.97;;;15.70;99.90;;;;;;5050802;28;20198;-50
2022/09/23 08:29:20;;;;;;;3.20;2.33;;;15.70;99.90;;;;;;5052157;28;20436;-52
2022/09/23 08:31:47;;;;;;;4.30;3.47;;;15.70;99.90;;;;;;5051026;28;20460;-50
2022/09/23 08:34:12;;;;;;;3.90;2.57;;;15.80;99.90;;;;;;5051477;28;20478;-52
2022/09/23 08:36:38;;;;;;;2.23;2.10;;;15.70;99.90;;;;;;5050960;28;20428;-49
2022/09/23 08:39:05;;;;;;;2.50;2.30;;;15.70;99.90;;;;;;5051738;28;20416;-48
2022/09/23 08:41:52;;;;;;;2.50;2.00;;;15.80;99.90;;;;;;5051938;28;20193;-49
2022/09/23 08:44:48;;;;;;;3.57;2.70;;;15.70;99.90;;;;;;5049899;28;20420;-51
2022/09/23 08:47:23;;;;;;;3.10;1.90;;;15.70;99.90;;;;;;5051836;28;20424;-51
2022/09/23 08:50:03;;;;;;;2.40;1.77;;;15.70;99.90;;;;;;5051691;28;20771;-51
2022/09/23 08:53:06;;;;;;;2.07;1.87;;;15.70;99.90;;;;;;5038413;28;20546;-52
2022/09/23 08:55:41;;;;;;;2.70;2.17;;;15.80;99.90;;;;;;5050286;28;20412;-51
2022/09/23 08:58:18;;;;;;;2.93;2.53;;;15.80;99.90;;;;;;5051635;28;20478;-52
2022/09/23 09:00:54;;;;;;;2.70;2.20;;;15.90;99.90;;;;;;5051889;28;20907;-51
2022/09/23 09:03:25;;;;;;;2.23;1.90;;;15.90;99.90;;;;;;5050984;28;20470;-48
2022/09/23 09:05:51;;;;;;;3.03;2.23;;;16.00;99.90;;;;;;5051522;28;20448;-50
2022/09/23 09:08:23;;;;;;;2.43;2.23;;;16.00;99.90;;;;;;5051309;28;20436;-48
2022/09/23 09:10:53;;;;;;;2.80;1.90;;;16.00;99.90;;;;;;5051575;28;20466;-49
2022/09/23 09:13:34;;;;;;;2.40;2.20;;;16.00;99.90;;;;;;5050649;28;20424;-50
2022/09/23 09:16:26;;;;;;;1.83;1.70;;;16.00;99.90;;;;;;5050167;28;21156;-51
2022/09/23 09:18:54;;;;;;;2.40;2.00;;;16.00;99.90;;;;;;5050849;28;20429;-49
2022/09/23 09:21:26;;;;;;;2.67;1.87;;;16.10;99.90;;;;;;5052291;28;20435;-51
2022/09/23 09:23:55;;;;;;;2.30;2.20;;;16.20;99.90;;;;;;5050839;28;20431;-50
2022/09/23 09:26:32;;;;;;;3.00;1.77;;;16.20;99.90;;;;;;5051275;28;20448;-49
2022/09/23 09:29:19;;;;;;;1.90;1.70;;;16.30;99.90;;;;;;5051009;28;20432;-51
2022/09/23 09:31:47;;;;;;;2.27;1.80;;;16.30;99.90;;;;;;5049990;28;20491;-51
2022/09/23 09:34:37;;;;;;;3.60;2.20;;;16.30;99.90;;;;;;5050181;28;20439;-48
2022/09/23 09:37:10;;;;;;;2.67;1.80;;;16.40;99.90;;;;;;5050918;28;20474;-49
2022/09/23 09:39:35;;;;;;;2.10;1.90;;;16.40;99.90;;;;;;5050546;28;20452;-52
2022/09/23 09:42:03;;;;;;;2.70;1.77;;;16.40;99.90;;;;;;5050908;28;20472;-50
2022/09/23 09:44:46;;;;;;;7.00;2.10;;;16.40;99.90;;;;;;5050124;28;20201;-48
2022/09/23 09:47:29;;;;;;;2.03;1.80;;;16.40;99.90;;;;;;5050756;28;20436;-49
2022/09/23 09:50:06;;;;;;;2.30;2.10;;;16.40;99.90;;;;;;5050316;28;21013;-46
2022/09/23 09:52:32;;;;;;;2.23;2.03;;;16.40;99.90;;;;;;5038335;28;20412;-50
2022/09/23 09:55:25;;;;;;;4.67;2.30;;;16.40;99.90;;;;;;5048082;28;20419;-52
2022/09/23 09:58:02;;;;;;;2.43;1.90;;;16.50;99.90;;;;;;5050610;28;20427;-49
2022/09/23 10:00:29;;;;;;;4.13;1.80;;;16.50;99.90;;;;;;5049991;28;20447;-54
2022/09/23 10:02:57;;;;;;;2.20;1.90;;;16.70;99.90;;;;;;5050096;28;20771;-48
2022/09/23 10:05:43;;;;;;;1.97;1.87;;;16.80;99.90;;;;;;5050092;28;20440;-50
2022/09/23 10:08:33;;;;;;;4.20;2.00;;;16.90;99.90;;;;;;5050432;28;20435;-47
2022/09/23 10:11:19;;;;;;;3.90;2.00;;;17.10;99.90;;;;;;5049999;28;20558;-48
2022/09/23 10:14:12;;;;;;;5.10;1.87;;;17.30;99.90;;;;;;5038491;28;20935;-53
2022/09/23 10:16:40;;;;;;;3.30;1.93;;;17.30;99.90;;;;;;5050057;28;20432;-49
2022/09/23 10:19:24;;;;;;;2.30;1.70;;;17.40;99.60;;;;;;5050474;28;20428;-53
2022/09/23 10:21:57;;;;;;;3.70;2.10;;;17.30;99.10;;;;;;5039120;28;20435;-46
2022/09/23 10:24:30;;;;;;;1.97;1.87;;;17.40;99.20;;;;;;5049593;28;20503;-47
2022/09/23 10:26:59;;;;;;;1.90;1.73;;;17.40;99.20;;;;;;5050101;28;20570;-50
2022/09/23 10:29:39;;;;;;;4.63;2.33;;;17.30;99.20;;;;;;5049906;28;20451;-46
2022/09/23 10:32:29;;;;;;;2.13;1.63;;;17.30;99.10;;;;;;5049907;28;20463;-47
2022/09/23 10:35:08;;;;;;;1.90;1.70;;;17.40;99.40;;;;;;5049755;28;20428;-49
2022/09/23 10:37:47;;;;;;;2.17;1.80;;;17.40;99.90;;;;;;5049821;28;20478;-52
2022/09/23 10:46:38;;;;;;;1.97;1.70;;;17.70;98.10;;;;;;5049569;28;20485;-49
2022/09/23 10:49:13;;;;;;;3.27;1.90;;;17.80;97.90;;;;;;5049933;28;20424;-47
2022/09/23 10:52:01;;;;;;;4.07;1.90;;;17.90;98.10;;;;;;5049725;28;20478;-48
2022/09/23 10:54:58;;;;;;;2.43;1.57;;;17.90;97.80;;;;;;5047112;28;20485;-51
2022/09/23 10:57:49;;;;;;;2.50;1.97;;;17.90;97.60;;;;;;5050823;28;20534;-46
2022/09/23 11:00:31;;;;;;;1.67;1.57;;;17.80;97.90;;;;;;5049627;28;20428;-48
2022/09/23 11:03:03;;;;;;;2.40;2.20;;;17.80;97.70;;;;;;5048805;28;20566;-47
2022/09/23 11:06:05;;;;;;;2.40;2.13;;;17.70;97.70;;;;;;5049916;28;20444;-49
2022/09/23 11:08:51;;;;;;;2.20;1.77;;;17.70;97.60;;;;;;5053735;28;20451;-49
2022/09/23 11:11:28;;;;;;;3.10;1.87;;;17.80;98.00;;;;;;5053269;28;20463;-46
2022/09/23 11:13:57;;;;;;;2.70;1.80;;;17.80;97.70;;;;;;5053004;28;20431;-46
2022/09/23 11:16:37;;;;;;;2.60;1.90;;;17.80;97.60;;;;;;5053667;28;20519;-50
2022/09/23 11:19:22;;;;;;;2.00;1.87;;;17.90;97.20;;;;;;5053605;28;20419;-49
2022/09/23 11:22:15;;;;;;;2.53;1.80;;;17.90;97.20;;;;;;5041484;28;20427;-53
2022/09/23 11:25:05;;;;;;;1.80;1.70;;;18.10;97.80;;;;;;5052866;28;20423;-47
2022/09/23 11:27:51;;;;;;;2.13;1.80;;;18.20;97.20;;;;;;5053453;28;20467;-47
2022/09/23 11:30:19;;;;;;;2.40;1.90;;;18.30;97.30;;;;;;5053334;28;20479;-49
2022/09/23 11:32:49;;;;;;;2.80;2.03;;;18.40;97.20;;;;;;5052631;28;20434;-46
2022/09/23 11:35:23;;;;;;;3.43;2.10;;;18.50;96.50;;;;;;5053303;28;20945;-50
2022/09/23 11:38:06;;;;;;;3.70;1.87;;;18.50;96.10;;;;;;5053323;28;20440;-48
2022/09/23 11:40:37;;;;;;;2.00;1.83;;;18.60;97.10;;;;;;5052972;28;20428;-49
2022/09/23 11:43:14;;;;;;;1.63;1.53;;;18.70;96.40;;;;;;5052524;28;20428;-51
2022/09/23 11:46:15;;;;;;;1.70;1.60;;;18.80;95.90;;;;;;5053122;28;20441;-50
2022/09/23 11:48:55;;;;;;;2.53;1.37;;;18.90;96.00;;;;;;5053639;28;20439;-52
2022/09/23 11:51:46;;;;;;;2.63;1.60;;;19.00;94.70;;;;;;5053092;28;20463;-51
2022/09/23 11:54:27;;;;;;;1.80;1.70;;;19.00;95.00;;;;;;5050671;28;20424;-51
2022/09/23 11:56:57;;;;;;;2.50;1.60;;;19.10;94.60;;;;;;5052925;28;20486;-50
2022/09/23 11:59:42;;;;;;;2.77;1.57;;;19.20;95.50;;;;;;5052920;28;20471;-47
2022/09/23 12:02:27;;;;;;;2.60;2.17;;;19.30;95.10;;;;;;5052304;28;20432;-51
2022/09/23 12:05:08;;;;;;;286.87;217.77;;;19.40;94.00;;;;;;5051156;28;20955;-46
2022/09/23 12:07:56;;;;;;;196.73;126.23;;;19.60;95.30;;;;;;5043801;28;20424;-50
2022/09/23 12:10:45;;;;;;;19.87;14.40;;;19.50;94.60;;;;;;5052705;28;20940;-51
2022/09/23 12:13:11;;;;;;;6.53;5.93;;;19.40;93.50;;;;;;5044467;28;20432;-54
2022/09/23 12:15:47;;;;;;;2.50;2.10;;;19.20;92.90;;;;;;5052597;28;21227;-50
2022/09/23 12:18:25;;;;;;;7.93;7.10;;;19.10;93.20;;;;;;5052034;28;20192;-53
2022/09/23 12:21:12;;;;;;;4.60;3.20;;;19.10;93.30;;;;;;5053218;28;20527;-50
2022/09/23 12:24:06;;;;;;;1.67;1.30;;;19.00;93.00;;;;;;5051862;28;20918;-52
2022/09/23 12:26:33;;;;;;;1.60;1.30;;;19.00;92.90;;;;;;5052377;28;20419;-49
2022/09/23 12:29:03;;;;;;;3.50;2.00;;;19.00;92.50;;;;;;5052228;28;20439;-51
2022/09/23 12:31:30;;;;;;;3.93;1.97;;;19.10;92.80;;;;;;5052249;28;20483;-52
2022/09/23 12:34:01;;;;;;;2.67;2.00;;;19.00;92.00;;;;;;5051627;28;20767;-53
2022/09/23 12:36:34;;;;;;;3.50;1.87;;;19.00;92.20;;;;;;5052193;28;20760;-49
2022/09/23 12:39:12;;;;;;;1.83;1.60;;;19.00;92.60;;;;;;5052060;28;20890;-49
2022/09/23 12:41:41;;;;;;;1.57;1.47;;;19.10;93.40;;;;;;5052054;28;20427;-49
2022/09/23 12:44:09;;;;;;;2.57;1.63;;;19.10;92.50;;;;;;5050139;28;20451;-49
2022/09/23 12:46:35;;;;;;;1.80;1.30;;;19.10;92.00;;;;;;5051864;28;20436;-53
2022/09/23 12:49:03;;;;;;;2.20;1.40;;;19.10;92.00;;;;;;5051867;28;20439;-49
2022/09/23 12:51:36;;;;;;;2.80;1.77;;;19.00;91.90;;;;;;5051668;28;20222;-49
2022/09/23 12:54:04;;;;;;;2.53;1.70;;;19.00;91.80;;;;;;5049868;28;20535;-52
2022/09/23 12:56:33;;;;;;;4.53;1.53;;;19.00;92.20;;;;;;5051700;28;20425;-49
2022/09/23 12:59:24;;;;;;;2.30;1.57;;;18.90;92.00;;;;;;5051889;28;20412;-49
2022/09/23 13:01:50;;;;;;;2.07;1.40;;;18.80;91.90;;;;;;5051529;28;20431;-49
2022/09/23 13:07:30;;;;;;;4.03;1.70;;;18.70;91.90;;;;;;5041291;28;20450;-52
2022/09/23 13:10:17;;;;;;;2.17;1.47;;;18.60;92.00;;;;;;5051255;28;20443;-53
2022/09/23 13:12:44;;;;;;;2.27;1.50;;;18.60;92.30;;;;;;5051047;28;20745;-51
2022/09/23 13:15:34;;;;;;;2.37;1.60;;;18.60;92.70;;;;;;5051633;28;20548;-51
2022/09/23 13:18:18;;;;;;;2.00;1.57;;;18.60;92.60;;;;;;5051565;28;20482;-49
2022/09/23 13:20:45;;;;;;;1.77;1.67;;;18.60;92.80;;;;;;5051158;28;21001;-48
2022/09/23 13:23:30;;;;;;;2.40;1.73;;;18.50;92.60;;;;;;5050671;28;20473;-52